Pascal — V2LP — position and weather

sailwx.info

Track history (hours):
 
Tides and Currents Weather Stations Pressure Air Temp Water Temp Dewpoint Dewpoint Depression Visibility Wind Speed Wind Dir Waves Ship Positions

Pascal

Last reported at 2017-Nov-19 06:29 UTC. Time now 2017-Nov-19 06:57 UTC.
Position N 39°12' W 009°51'.

Length 90 m; draft 5.6 m.

Type: Cargo ship. MMSI: 304291000.

Date/timePositionNaut miles runAvg speedWind from/ knotsBaromVisibWave heightAir tempDewpointWater temp
2017-Nov-19 06:29N 39°12' W 009°51'5 9.9
2017-Nov-19 06:00N 39°07' W 009°51'5 9.8
2017-Nov-19 05:30N 39°02' W 009°51'5 9.7
2017-Nov-19 05:00N 38°57' W 009°51'5 9.6
2017-Nov-19 04:30N 38°52' W 009°51'5 9.6
2017-Nov-19 04:00N 38°48' W 009°51'5 9.6
2017-Nov-19 03:30N 38°43' W 009°51'510.0
2017-Nov-19 03:00N 38°38' W 009°49'5 9.9
2017-Nov-19 02:30N 38°33' W 009°48'5 9.6
2017-Nov-19 02:00N 38°28' W 009°46'5 9.6
2017-Nov-19 01:30N 38°24' W 009°45'5 9.3
2017-Nov-19 01:00N 38°19' W 009°44'5 9.6
2017-Nov-19 00:27N 38°14' W 009°42'510.3
2017-Nov-19 00:00N 38°10' W 009°41'510.3
2017-Nov-18 23:30N 38°04' W 009°40'510.6
2017-Nov-18 23:00N 37°59' W 009°38'510.3
2017-Nov-18 22:30N 37°54' W 009°37'510.1
2017-Nov-18 22:00N 37°49' W 009°35'510.1
2017-Nov-18 21:30N 37°44' W 009°34'510.0
2017-Nov-18 21:00N 37°40' W 009°32'5 9.8
2017-Nov-18 20:30N 37°35' W 009°30'510.0
2017-Nov-18 20:00N 37°30' W 009°28'5 9.9
2017-Nov-18 19:30N 37°25' W 009°28'510.0
2017-Nov-18 19:00N 37°20' W 009°26'6 9.5
2017-Nov-18 18:25N 37°15' W 009°25'4 9.6
2017-Nov-18 18:00N 37°11' W 009°24'5 9.7
2017-Nov-18 17:30N 37°06' W 009°22'5 9.8
2017-Nov-18 17:00N 37°02' W 009°21'5 9.9
2017-Nov-18 16:30N 36°57' W 009°20'5 9.9
2017-Nov-18 15:59N 36°52' W 009°17'193 9.7
2017-Nov-17 20:04N 36°00' W 005°26'1 9.2
2017-Nov-17 20:00N 36°01' W 005°25'5 9.3
2017-Nov-17 19:30N 36°01' W 005°20'24510.0
2017-Nov-16 19:01N 37°33' W 000°36'010.6
2017-Nov-16 18:59N 37°33' W 000°35'510.5
2017-Nov-16 18:30N 37°37' W 000°31'510.6
2017-Nov-16 18:00N 37°41' W 000°28'  
2017-Nov-10 11:18N 42°58' E 007°12'510.7
2017-Nov-10 10:48N 42°59' E 007°19'810.2
2017-Nov-10 10:02N 42°60' E 007°30'010.3
2017-Nov-10 10:00N 42°60' E 007°30'104 9.7
2017-Nov-09 23:17N 43°10' E 009°51'3 9.9
2017-Nov-09 22:58N 43°10' E 009°55'4 9.4
2017-Nov-09 22:30N 43°09' E 010°01'5 9.6
2017-Nov-09 22:00N 43°06' E 010°06'5 9.6
2017-Nov-09 21:30N 43°04' E 010°12'  
Track history (hours):
 
Tides and Currents Weather Stations Pressure Air Temp Water Temp Dewpoint Dewpoint Depression Visibility Wind Speed Wind Dir Waves Ship Positions

Pascal

Last reported at 2017-Nov-19 06:29 UTC. Time now 2017-Nov-19 06:57 UTC.
Position N 39°12' W 009°51'.

Length 90 m; draft 5.6 m.

Type: Cargo ship. MMSI: 304291000.

Date/timePositionNaut miles runAvg speedWind from/ knotsBaromVisibWave heightAir tempDewpointWater temp
2017-Nov-19 06:29N 39°12' W 009°51'5 9.9
2017-Nov-19 06:00N 39°07' W 009°51'5 9.8
2017-Nov-19 05:30N 39°02' W 009°51'5 9.7
2017-Nov-19 05:00N 38°57' W 009°51'5 9.6
2017-Nov-19 04:30N 38°52' W 009°51'5 9.6
2017-Nov-19 04:00N 38°48' W 009°51'5 9.6
2017-Nov-19 03:30N 38°43' W 009°51'510.0
2017-Nov-19 03:00N 38°38' W 009°49'5 9.9
2017-Nov-19 02:30N 38°33' W 009°48'5 9.6
2017-Nov-19 02:00N 38°28' W 009°46'5 9.6
2017-Nov-19 01:30N 38°24' W 009°45'5 9.3
2017-Nov-19 01:00N 38°19' W 009°44'5 9.6
2017-Nov-19 00:27N 38°14' W 009°42'510.3
2017-Nov-19 00:00N 38°10' W 009°41'510.3
2017-Nov-18 23:30N 38°04' W 009°40'510.6
2017-Nov-18 23:00N 37°59' W 009°38'510.3
2017-Nov-18 22:30N 37°54' W 009°37'510.1
2017-Nov-18 22:00N 37°49' W 009°35'510.1
2017-Nov-18 21:30N 37°44' W 009°34'510.0
2017-Nov-18 21:00N 37°40' W 009°32'5 9.8
2017-Nov-18 20:30N 37°35' W 009°30'510.0
2017-Nov-18 20:00N 37°30' W 009°28'5 9.9
2017-Nov-18 19:30N 37°25' W 009°28'510.0
2017-Nov-18 19:00N 37°20' W 009°26'6 9.5
2017-Nov-18 18:25N 37°15' W 009°25'4 9.6
2017-Nov-18 18:00N 37°11' W 009°24'5 9.7
2017-Nov-18 17:30N 37°06' W 009°22'5 9.8
2017-Nov-18 17:00N 37°02' W 009°21'5 9.9
2017-Nov-18 16:30N 36°57' W 009°20'5 9.9
2017-Nov-18 15:59N 36°52' W 009°17'193 9.7
2017-Nov-17 20:04N 36°00' W 005°26'1 9.2
2017-Nov-17 20:00N 36°01' W 005°25'5 9.3
2017-Nov-17 19:30N 36°01' W 005°20'24510.0
2017-Nov-16 19:01N 37°33' W 000°36'010.6
2017-Nov-16 18:59N 37°33' W 000°35'510.5
2017-Nov-16 18:30N 37°37' W 000°31'510.6
2017-Nov-16 18:00N 37°41' W 000°28'  
2017-Nov-10 11:18N 42°58' E 007°12'510.7
2017-Nov-10 10:48N 42°59' E 007°19'810.2
2017-Nov-10 10:02N 42°60' E 007°30'010.3
2017-Nov-10 10:00N 42°60' E 007°30'104 9.7
2017-Nov-09 23:17N 43°10' E 009°51'3 9.9
2017-Nov-09 22:58N 43°10' E 009°55'4 9.4
2017-Nov-09 22:30N 43°09' E 010°01'5 9.6
2017-Nov-09 22:00N 43°06' E 010°06'5 9.6
2017-Nov-09 21:30N 43°04' E 010°12'  

Dump ship's entire track history